createdAt,value
2023-02-23T00:01:22.209Z,68.65
2023-02-23T00:03:49.756Z,75.10
2023-02-23T00:06:18.614Z,70.45
2023-02-23T00:08:47.733Z,66.22
2023-02-23T00:11:16.721Z,65.43
2023-02-23T00:13:46.139Z,69.63
2023-02-23T00:16:18.817Z,69.88
2023-02-23T00:18:53.327Z,64.65
2023-02-23T00:21:29.264Z,67.53
2023-02-23T00:23:59.465Z,66.45
2023-02-23T00:26:31.113Z,75.45
2023-02-23T00:28:58.431Z,74.40
2023-02-23T00:31:27.074Z,72.45
2023-02-23T00:33:55.672Z,73.32
2023-02-23T00:36:24.848Z,72.15
2023-02-23T00:38:56.381Z,76.85
2023-02-23T00:41:30.540Z,81.65
2023-02-23T00:43:59.796Z,77.97
2023-02-23T00:46:29.782Z,82.50
2023-02-23T00:48:58.535Z,85.55
2023-02-23T00:51:27.655Z,87.30
2023-02-23T00:53:55.174Z,89.75
2023-02-23T00:56:22.056Z,88.70
2023-02-23T00:58:49.020Z,84.88
2023-02-23T01:01:17.623Z,90.95
2023-02-23T01:03:44.603Z,81.90
2023-02-23T01:06:14.664Z,87.82
2023-02-23T01:08:48.992Z,93.63
2023-02-23T01:11:22.032Z,96.40
2023-02-23T01:13:51.285Z,86.70
2023-02-23T01:16:21.045Z,97.10
2023-02-23T01:18:48.973Z,93.93
2023-02-23T01:21:17.459Z,95.68
2023-02-23T01:23:44.555Z,98.10
2023-02-23T01:26:20.093Z,98.65
2023-02-23T01:28:51.648Z,102.65
2023-02-23T01:31:19.809Z,100.25
2023-02-23T01:33:46.689Z,108.43
2023-02-23T01:36:13.741Z,110.78
2023-02-23T01:38:41.052Z,105.55
2023-02-23T01:41:08.959Z,103.35
2023-02-23T01:43:36.974Z,113.68
2023-02-23T01:46:03.910Z,111.13
2023-02-23T01:48:39.211Z,107.53
2023-02-23T01:51:13.515Z,115.75
2023-02-23T01:53:44.129Z,115.15
2023-02-23T01:56:21.296Z,113.85
2023-02-23T02:01:19.360Z,115.60
2023-02-23T02:03:56.642Z,123.35
2023-02-23T02:06:28.638Z,116.45
2023-02-23T02:09:00.016Z,119.70
2023-02-23T02:11:36.141Z,125.22
2023-02-23T02:14:12.913Z,129.98
2023-02-23T02:17:25.416Z,129.00
2023-02-23T02:20:33.256Z,126.97
2023-02-23T02:23:23.635Z,131.75
2023-02-23T02:26:01.236Z,131.45
2023-02-23T02:29:05.495Z,133.30
2023-02-23T02:31:52.269Z,139.80
2023-02-23T02:35:13.074Z,135.98
2023-02-23T02:38:03.808Z,128.93
2023-02-23T02:40:53.070Z,136.93
2023-02-23T02:43:40.536Z,141.85
2023-02-23T02:46:17.371Z,132.48
2023-02-23T02:48:57.513Z,140.13
2023-02-23T02:51:51.889Z,134.75
2023-02-23T02:54:23.120Z,132.40
2023-02-23T02:56:51.948Z,134.73
2023-02-23T02:59:38.865Z,144.32
2023-02-23T03:02:24.834Z,140.88
2023-02-23T03:05:10.130Z,140.65
2023-02-23T03:11:09.996Z,151.55
2023-02-23T03:14:03.072Z,163.18
2023-02-23T03:16:52.190Z,165.93
2023-02-23T03:19:50.636Z,162.60
2023-02-23T03:22:48.418Z,164.57
2023-02-23T03:25:42.958Z,183.32
2023-02-23T03:28:43.606Z,182.32
2023-02-23T03:31:28.632Z,202.18
2023-02-23T03:34:22.007Z,181.98
2023-02-23T03:37:12.222Z,184.02
2023-02-23T03:40:04.144Z,190.82
2023-02-23T03:42:53.975Z,188.15
2023-02-23T03:45:42.160Z,188.73
2023-02-23T03:48:30.954Z,197.68
2023-02-23T03:51:22.878Z,213.88
2023-02-23T03:54:47.165Z,214.35
2023-02-23T03:57:36.137Z,214.43
2023-02-23T04:00:26.888Z,217.55
2023-02-23T04:03:14.578Z,241.88
2023-02-23T04:06:01.842Z,235.43
2023-02-23T04:08:52.680Z,244.07
2023-02-23T04:11:52.008Z,271.95
2023-02-23T04:14:56.348Z,253.32
2023-02-23T04:17:28.966Z,264.92
2023-02-23T04:19:56.676Z,273.85
2023-02-23T04:22:23.923Z,270.65
2023-02-23T04:24:50.954Z,286.23
2023-02-23T04:27:18.211Z,287.38
2023-02-23T04:29:45.073Z,289.63
2023-02-23T04:32:15.551Z,286.23
2023-02-23T04:34:43.045Z,285.17
2023-02-23T04:37:10.006Z,297.73
2023-02-23T04:39:36.782Z,297.88
2023-02-23T04:42:03.535Z,317.73
2023-02-23T04:44:30.187Z,304.23
2023-02-23T04:46:57.434Z,320.08
2023-02-23T04:49:24.315Z,338.85
2023-02-23T04:51:50.931Z,329.00
2023-02-23T04:54:18.169Z,319.85
2023-02-23T04:56:44.781Z,308.77
2023-02-23T04:59:11.427Z,293.90
2023-02-23T05:01:38.193Z,383.08
2023-02-23T05:04:04.917Z,369.33
2023-02-23T05:06:31.871Z,403.48
2023-02-23T05:08:58.917Z,301.73
2023-02-23T05:11:27.625Z,379.45
2023-02-23T05:13:54.524Z,388.30
2023-02-23T05:16:21.470Z,359.00
2023-02-23T05:18:48.391Z,367.38
2023-02-23T05:21:15.003Z,363.95
2023-02-23T05:23:41.704Z,364.77
2023-02-23T05:26:12.667Z,403.13
2023-02-23T05:28:41.098Z,371.73
2023-02-23T05:31:08.298Z,417.80
2023-02-23T05:33:42.275Z,426.42
2023-02-23T05:36:10.741Z,448.38
2023-02-23T05:38:37.904Z,369.48
2023-02-23T05:41:06.599Z,462.42
2023-02-23T05:43:33.668Z,410.55
2023-02-23T05:46:01.302Z,386.08
2023-02-23T05:48:28.644Z,484.00
2023-02-23T05:50:55.237Z,386.75
2023-02-23T05:53:21.853Z,426.33
2023-02-23T05:55:48.533Z,406.95
2023-02-23T05:58:16.063Z,352.05
2023-02-23T06:00:42.745Z,352.73
2023-02-23T06:03:09.343Z,421.85
2023-02-23T06:05:36.087Z,402.33
2023-02-23T06:08:02.775Z,406.60
2023-02-23T06:10:29.388Z,372.25
2023-02-23T06:12:56.020Z,388.73
2023-02-23T06:15:22.634Z,452.58
2023-02-23T06:17:49.273Z,407.02
2023-02-23T06:20:16.016Z,487.42
2023-02-23T06:22:42.686Z,406.52
2023-02-23T06:25:12.719Z,466.63
2023-02-23T06:27:40.239Z,473.38
2023-02-23T06:30:07.887Z,436.85
2023-02-23T06:32:34.615Z,426.85
2023-02-23T06:35:03.704Z,418.10
2023-02-23T06:37:30.362Z,443.42
2023-02-23T06:39:57.040Z,432.33
2023-02-23T06:42:23.746Z,526.20
2023-02-23T06:44:50.364Z,550.15
2023-02-23T06:47:17.316Z,466.08
2023-02-23T06:49:46.182Z,427.27
2023-02-23T06:52:15.581Z,470.00
2023-02-23T06:54:42.405Z,435.52
2023-02-23T06:57:09.533Z,428.83
2023-02-23T06:59:36.737Z,471.33
2023-02-23T07:02:06.611Z,472.30
2023-02-23T07:04:33.712Z,483.85
2023-02-23T07:07:00.389Z,502.98
2023-02-23T07:09:29.150Z,496.80
2023-02-23T07:11:56.980Z,477.95
2023-02-23T07:14:26.856Z,488.40
2023-02-23T07:16:54.429Z,473.48
2023-02-23T07:19:21.268Z,532.97
2023-02-23T07:21:47.907Z,466.08
2023-02-23T07:24:14.547Z,481.15
2023-02-23T07:26:43.889Z,455.25
2023-02-23T07:29:12.400Z,468.90
2023-02-23T07:31:39.522Z,502.90
2023-02-23T07:34:07.467Z,487.08
2023-02-23T07:36:34.165Z,482.75
2023-02-23T07:39:00.833Z,501.55
2023-02-23T07:41:27.644Z,510.75
2023-02-23T07:43:54.253Z,513.80
2023-02-23T07:46:20.928Z,534.40
2023-02-23T07:48:47.552Z,500.20
2023-02-23T07:51:19.652Z,498.52
2023-02-23T07:53:46.539Z,476.85
2023-02-23T07:56:13.565Z,538.63
2023-02-23T07:58:42.204Z,529.88
2023-02-23T08:01:12.424Z,472.67
2023-02-23T08:03:39.390Z,421.67
2023-02-23T08:06:06.571Z,445.20
2023-02-23T08:08:35.120Z,499.55
2023-02-23T08:11:03.545Z,464.05
2023-02-23T08:13:31.902Z,490.17
2023-02-23T08:15:59.220Z,425.13
2023-02-23T08:18:27.520Z,444.63
2023-02-23T08:21:01.540Z,358.95
2023-02-23T08:23:32.841Z,408.60
2023-02-23T08:26:01.079Z,397.08
2023-02-23T08:28:28.426Z,348.67
2023-02-23T08:30:55.190Z,356.52
2023-02-23T08:33:22.510Z,320.30
2023-02-23T08:35:49.127Z,359.17
2023-02-23T08:38:16.650Z,299.60
2023-02-23T08:40:43.408Z,285.75
2023-02-23T08:43:10.205Z,279.15
2023-02-23T08:45:38.567Z,262.05
2023-02-23T08:48:06.516Z,265.15
2023-02-23T08:50:33.188Z,273.95
2023-02-23T08:52:59.907Z,283.15
2023-02-23T08:55:26.579Z,256.55
2023-02-23T08:57:53.272Z,265.70
2023-02-23T09:00:20.624Z,267.02
2023-02-23T09:02:48.384Z,250.65
2023-02-23T09:05:15.736Z,264.80
2023-02-23T09:07:46.309Z,268.58
2023-02-23T09:10:15.588Z,240.32
2023-02-23T09:12:43.030Z,229.98
2023-02-23T09:15:10.056Z,229.25
2023-02-23T09:17:37.136Z,198.40
2023-02-23T09:20:05.140Z,214.75
2023-02-23T09:22:32.504Z,217.23
2023-02-23T09:24:59.174Z,226.57
2023-02-23T09:27:25.806Z,219.73
2023-02-23T09:29:52.453Z,222.60
2023-02-23T09:32:19.221Z,211.35
2023-02-23T09:34:48.624Z,183.30
2023-02-23T09:37:15.793Z,208.68
2023-02-23T09:39:43.456Z,242.10
2023-02-23T09:42:19.937Z,222.38
2023-02-23T09:45:26.353Z,237.85
2023-02-23T09:48:21.040Z,219.65
2023-02-23T09:50:51.893Z,214.98
2023-02-23T09:53:21.510Z,222.07
2023-02-23T09:55:50.122Z,195.80
2023-02-23T09:58:43.067Z,215.10
2023-02-23T10:01:44.947Z,198.38
2023-02-23T10:04:32.380Z,190.82
2023-02-23T10:07:17.362Z,219.18
2023-02-23T10:10:15.081Z,177.80
2023-02-23T10:12:44.738Z,180.82
2023-02-23T10:15:27.821Z,166.88
2023-02-23T10:18:03.293Z,185.18
2023-02-23T10:20:53.560Z,177.30
2023-02-23T10:23:26.989Z,167.30
2023-02-23T10:25:59.225Z,178.38
2023-02-23T10:28:26.684Z,173.50
2023-02-23T10:30:55.496Z,187.43
2023-02-23T10:33:41.184Z,179.68
2023-02-23T10:36:19.534Z,167.77
2023-02-23T10:38:47.031Z,160.52
2023-02-23T10:41:15.058Z,171.02
2023-02-23T10:43:42.184Z,159.77
2023-02-23T10:46:19.423Z,157.15
2023-02-23T10:48:49.143Z,172.27
2023-02-23T10:51:25.559Z,165.90
2023-02-23T10:53:52.824Z,184.10
2023-02-23T10:56:22.774Z,193.70
2023-02-23T10:58:57.686Z,206.27
2023-02-23T11:04:34.638Z,187.25
2023-02-23T11:07:18.304Z,182.40
2023-02-23T11:09:47.712Z,193.35
2023-02-23T11:12:41.657Z,201.38
2023-02-23T11:15:48.113Z,190.95
2023-02-23T11:18:23.314Z,224.57
2023-02-23T11:20:51.081Z,186.27
2023-02-23T11:23:34.205Z,169.82
2023-02-23T11:26:03.471Z,178.65
2023-02-23T11:28:43.133Z,182.88
2023-02-23T11:31:18.675Z,194.65
2023-02-23T11:33:47.113Z,169.32
2023-02-23T11:36:27.053Z,166.82
2023-02-23T11:39:05.193Z,185.70
2023-02-23T11:41:35.011Z,211.40
2023-02-23T11:44:06.106Z,228.77
2023-02-23T11:46:37.603Z,230.82
2023-02-23T11:49:18.610Z,221.40
2023-02-23T11:51:49.608Z,207.07
2023-02-23T11:54:33.203Z,197.00
2023-02-23T11:57:02.489Z,202.32
2023-02-23T11:59:40.457Z,205.63
2023-02-23T12:02:23.317Z,199.20
2023-02-23T12:04:53.657Z,190.23
2023-02-23T12:07:34.784Z,189.57
2023-02-23T12:10:30.949Z,178.43
2023-02-23T12:13:10.017Z,169.98
2023-02-23T12:16:00.731Z,168.30
2023-02-23T12:18:36.330Z,146.65
2023-02-23T12:21:11.900Z,155.00
2023-02-23T12:23:44.263Z,160.43
2023-02-23T12:26:18.849Z,130.98
2023-02-23T12:28:58.602Z,136.57
2023-02-23T12:31:42.219Z,170.15
2023-02-23T12:34:27.878Z,173.38
2023-02-23T12:37:07.348Z,173.52
2023-02-23T12:39:39.972Z,186.40
2023-02-23T12:42:15.298Z,159.75
2023-02-23T12:44:52.717Z,161.75
2023-02-23T12:47:56.035Z,163.48
2023-02-23T12:50:50.121Z,147.40
2023-02-23T12:53:41.680Z,148.10
2023-02-23T12:56:14.376Z,134.95
2023-02-23T12:58:45.559Z,140.43
2023-02-23T13:01:25.790Z,136.55
2023-02-23T13:03:58.332Z,135.85
2023-02-23T13:07:05.362Z,138.93
2023-02-23T13:09:43.985Z,117.97
2023-02-23T13:12:43.656Z,132.25
2023-02-23T13:15:20.658Z,147.85
2023-02-23T13:17:55.934Z,139.07
2023-02-23T13:20:38.471Z,136.48
2023-02-23T13:23:32.092Z,132.85
2023-02-23T13:26:20.388Z,142.40
2023-02-23T13:28:59.020Z,155.82
2023-02-23T13:31:40.912Z,146.40
2023-02-23T13:34:13.792Z,148.60
2023-02-23T13:36:43.085Z,152.60
2023-02-23T13:39:31.430Z,135.05
2023-02-23T13:42:00.844Z,141.73
2023-02-23T13:44:34.141Z,136.95
2023-02-23T13:47:12.756Z,125.10
2023-02-23T13:49:49.443Z,139.75
2023-02-23T13:52:38.012Z,142.40
2023-02-23T13:55:11.757Z,147.50
2023-02-23T13:57:38.886Z,148.93
2023-02-23T14:00:18.885Z,144.82
2023-02-23T14:02:46.239Z,153.90
2023-02-23T14:05:21.090Z,152.75
2023-02-23T14:07:52.004Z,145.90
2023-02-23T14:10:30.200Z,160.73
2023-02-23T14:13:28.549Z,163.85
2023-02-23T14:16:27.998Z,136.98
2023-02-23T14:19:03.937Z,147.02
2023-02-23T14:21:42.831Z,135.05
2023-02-23T14:24:21.604Z,130.48
2023-02-23T14:27:30.584Z,119.50
2023-02-23T14:30:10.331Z,131.85
2023-02-23T14:32:44.979Z,116.63
2023-02-23T14:35:33.184Z,117.15
2023-02-23T14:38:02.019Z,117.28
2023-02-23T14:40:38.970Z,131.98
2023-02-23T14:43:44.070Z,128.73
2023-02-23T14:46:24.229Z,144.10
2023-02-23T14:49:00.412Z,149.48
2023-02-23T14:51:48.413Z,146.63
2023-02-23T14:54:24.074Z,145.35
2023-02-23T14:56:54.028Z,146.38
2023-02-23T14:59:23.228Z,154.07
2023-02-23T15:01:51.631Z,152.05
2023-02-23T15:04:22.516Z,125.80
2023-02-23T15:06:54.352Z,133.40
2023-02-23T15:09:39.624Z,147.45
2023-02-23T15:12:16.569Z,133.07
2023-02-23T15:14:44.005Z,130.02
2023-02-23T15:17:17.835Z,130.40
2023-02-23T15:19:45.962Z,133.10
2023-02-23T15:22:24.064Z,134.07
2023-02-23T15:24:50.974Z,122.78
2023-02-23T15:27:42.209Z,136.52
2023-02-23T15:30:31.431Z,127.80
2023-02-23T15:33:13.362Z,111.05
2023-02-23T15:35:55.123Z,99.85
2023-02-23T15:38:42.799Z,87.07
2023-02-23T15:41:18.286Z,85.82
2023-02-23T15:43:45.349Z,82.75
2023-02-23T15:46:24.011Z,86.47
2023-02-23T15:48:53.305Z,87.25
2023-02-23T15:51:27.851Z,87.60
2023-02-23T15:53:55.173Z,96.20
2023-02-23T15:56:27.754Z,103.00
2023-02-23T15:59:20.673Z,74.10
2023-02-23T16:01:47.644Z,58.47
2023-02-23T16:04:18.789Z,55.40
2023-02-23T16:06:53.165Z,55.60
2023-02-23T16:09:21.199Z,67.50
2023-02-23T16:11:55.446Z,64.63
2023-02-23T16:14:24.154Z,63.38
2023-02-23T16:17:09.892Z,59.40
2023-02-23T16:19:40.936Z,60.22
2023-02-23T16:22:18.404Z,94.85
2023-02-23T16:24:45.117Z,106.80
2023-02-23T16:27:12.471Z,111.63
2023-02-23T16:29:41.772Z,111.35
2023-02-23T16:32:20.191Z,116.22
2023-02-23T16:34:55.629Z,117.97
2023-02-23T16:37:28.223Z,121.63
2023-02-23T16:39:58.419Z,147.88
2023-02-23T16:42:32.056Z,142.88
2023-02-23T16:44:59.373Z,158.10
2023-02-23T16:47:36.165Z,128.38
2023-02-23T16:50:20.212Z,126.88
2023-02-23T16:52:52.877Z,125.63
2023-02-23T16:55:29.644Z,121.45
2023-02-23T16:58:02.243Z,140.95
2023-02-23T17:00:32.141Z,134.02
2023-02-23T17:03:00.432Z,131.35
2023-02-23T17:05:28.395Z,119.43
2023-02-23T17:07:57.426Z,113.95
2023-02-23T17:10:28.388Z,110.40
2023-02-23T17:13:06.751Z,105.95
2023-02-23T17:15:38.340Z,97.88
2023-02-23T17:18:06.083Z,96.20
2023-02-23T17:20:33.229Z,85.53
2023-02-23T17:23:01.802Z,90.70
2023-02-23T17:25:29.136Z,65.57
2023-02-23T17:27:57.543Z,62.10
2023-02-23T17:30:25.802Z,57.72
2023-02-23T17:32:56.262Z,60.15
2023-02-23T17:35:23.767Z,58.80
2023-02-23T17:37:50.745Z,64.50
2023-02-23T17:40:30.958Z,68.43
2023-02-23T17:42:59.972Z,48.92
2023-02-23T17:45:28.172Z,56.67
2023-02-23T17:47:55.705Z,66.43
2023-02-23T17:50:23.075Z,55.58
2023-02-23T17:52:51.033Z,48.72
2023-02-23T17:55:19.267Z,55.85
2023-02-23T17:57:46.333Z,66.50
2023-02-23T18:00:16.067Z,85.40
2023-02-23T18:02:44.556Z,80.30
2023-02-23T18:05:12.381Z,108.90
2023-02-23T18:07:39.269Z,86.40
2023-02-23T18:10:06.939Z,91.90
2023-02-23T18:12:34.042Z,106.25
2023-02-23T18:15:00.717Z,116.25
2023-02-23T18:17:27.355Z,123.60
2023-02-23T18:19:54.011Z,147.57
2023-02-23T18:22:20.762Z,140.73
2023-02-23T18:24:47.607Z,151.48
2023-02-23T18:27:14.927Z,147.20
2023-02-23T18:29:42.645Z,142.30
2023-02-23T18:32:12.109Z,180.05
2023-02-23T18:34:38.943Z,180.45
2023-02-23T18:37:08.496Z,174.30
2023-02-23T18:39:35.568Z,146.68
2023-02-23T18:42:04.329Z,139.00
2023-02-23T18:44:32.892Z,157.45
2023-02-23T18:47:00.737Z,163.32
2023-02-23T18:49:27.354Z,162.90
2023-02-23T18:51:54.354Z,167.73
2023-02-23T18:54:22.324Z,169.90
2023-02-23T18:56:49.444Z,145.70
2023-02-23T18:59:16.200Z,154.10
2023-02-23T19:01:45.249Z,167.75
2023-02-23T19:04:12.408Z,156.88
2023-02-23T19:06:42.674Z,175.75
2023-02-23T19:09:12.569Z,201.02
2023-02-23T19:11:43.068Z,160.98
2023-02-23T19:14:18.263Z,141.15
2023-02-23T19:16:46.686Z,124.35
2023-02-23T19:19:14.321Z,122.13
2023-02-23T19:21:41.398Z,129.43
2023-02-23T19:24:08.690Z,160.30
2023-02-23T19:26:37.360Z,169.25
2023-02-23T19:29:04.622Z,184.10
2023-02-23T19:31:31.788Z,225.30
2023-02-23T19:33:59.515Z,201.82
2023-02-23T19:36:30.499Z,202.45
2023-02-23T19:39:10.141Z,195.82
2023-02-23T19:41:39.107Z,168.40
2023-02-23T19:44:06.158Z,154.63
2023-02-23T19:46:32.890Z,183.50
2023-02-23T19:48:59.896Z,186.18
2023-02-23T19:51:27.169Z,156.80
2023-02-23T19:53:55.260Z,189.30
2023-02-23T19:56:24.677Z,181.02
2023-02-23T19:58:52.149Z,174.35
2023-02-23T20:01:21.986Z,173.27
2023-02-23T20:03:55.220Z,184.10
2023-02-23T20:06:24.784Z,187.80
2023-02-23T20:08:52.567Z,203.60
2023-02-23T20:11:20.063Z,209.90
2023-02-23T20:13:46.958Z,202.27
2023-02-23T20:16:14.807Z,222.07
2023-02-23T20:18:42.697Z,240.48
2023-02-23T20:21:15.049Z,244.98
2023-02-23T20:23:43.492Z,220.75
2023-02-23T20:26:14.384Z,242.07
2023-02-23T20:28:41.817Z,231.07
2023-02-23T20:31:14.595Z,201.43
2023-02-23T20:33:41.493Z,188.35
2023-02-23T20:36:08.566Z,198.88
2023-02-23T20:38:35.270Z,189.98
2023-02-23T20:41:04.007Z,205.20
2023-02-23T20:43:31.529Z,181.63
2023-02-23T20:46:00.681Z,204.60
2023-02-23T20:48:29.313Z,223.13
2023-02-23T20:50:56.950Z,196.73
2023-02-23T20:53:25.430Z,207.38
2023-02-23T20:55:53.644Z,208.13
2023-02-23T20:58:26.037Z,199.45
2023-02-23T21:00:54.638Z,193.63
2023-02-23T21:03:21.606Z,182.80
2023-02-23T21:05:48.882Z,189.25
2023-02-23T21:08:15.936Z,205.15
2023-02-23T21:10:42.707Z,256.75
2023-02-23T21:13:12.331Z,234.05
2023-02-23T21:15:40.653Z,286.02
2023-02-23T21:18:08.118Z,268.48
2023-02-23T21:20:36.610Z,293.63
2023-02-23T21:23:04.072Z,286.13
2023-02-23T21:25:31.017Z,359.15
2023-02-23T21:28:01.531Z,341.10
2023-02-23T21:30:28.902Z,327.10
2023-02-23T21:32:56.361Z,427.52
2023-02-23T21:35:23.488Z,487.48
2023-02-23T21:37:52.713Z,691.13
2023-02-23T21:40:24.701Z,433.27
2023-02-23T21:42:52.197Z,571.45
2023-02-23T21:45:19.458Z,488.00
2023-02-23T21:47:47.355Z,507.60
2023-02-23T21:50:16.739Z,346.80
2023-02-23T21:52:46.660Z,308.15
2023-02-23T21:55:21.602Z,352.02
2023-02-23T21:57:48.971Z,420.70
2023-02-23T22:00:16.225Z,382.48
2023-02-23T22:02:46.092Z,184.88
2023-02-23T22:05:14.044Z,127.35
2023-02-23T22:07:40.672Z,125.13
2023-02-23T22:10:07.646Z,111.88
2023-02-23T22:12:34.245Z,127.38
2023-02-23T22:15:07.548Z,76.22
2023-02-23T22:17:34.147Z,52.20
2023-02-23T22:20:01.009Z,53.28
2023-02-23T22:22:27.955Z,58.15
2023-02-23T22:24:54.565Z,52.25
2023-02-23T22:27:22.283Z,52.67
2023-02-23T22:29:48.936Z,60.25
2023-02-23T22:32:17.417Z,53.35
2023-02-23T22:34:44.191Z,49.05
2023-02-23T22:37:10.836Z,55.08
2023-02-23T22:39:42.208Z,53.42
2023-02-23T22:42:12.430Z,52.55
2023-02-23T22:44:39.375Z,44.60
2023-02-23T22:47:07.272Z,63.05
2023-02-23T22:49:34.571Z,74.20
2023-02-23T22:52:01.272Z,89.85
2023-02-23T22:54:27.903Z,87.53
2023-02-23T22:56:54.864Z,97.20
2023-02-23T22:59:21.655Z,102.93
2023-02-23T23:01:50.070Z,99.38
2023-02-23T23:04:17.029Z,73.28
2023-02-23T23:06:44.011Z,65.32
2023-02-23T23:09:12.328Z,67.28
2023-02-23T23:11:41.607Z,48.00
2023-02-23T23:14:10.489Z,54.33
2023-02-23T23:16:47.609Z,43.60
2023-02-23T23:19:17.291Z,46.05
2023-02-23T23:21:45.901Z,46.85
2023-02-23T23:24:13.544Z,46.83
2023-02-23T23:26:41.110Z,45.30
2023-02-23T23:29:11.240Z,47.83
2023-02-23T23:31:40.212Z,47.08
2023-02-23T23:34:10.634Z,45.13
2023-02-23T23:36:43.275Z,35.25
2023-02-23T23:39:11.920Z,42.92
2023-02-23T23:41:39.530Z,41.50
2023-02-23T23:44:06.610Z,40.88
2023-02-23T23:46:42.714Z,40.38
2023-02-23T23:49:15.824Z,37.88
2023-02-23T23:51:45.722Z,46.05
2023-02-23T23:54:29.212Z,46.50
2023-02-23T23:56:57.095Z,52.80
2023-02-23T23:59:26.372Z,60.42
